MET: Información y Pronóstico Aeronáutico

///////////////////////////////////////////////////////////////////////////////////////////////////////////////////////////////////////////////////////////////////////////////////////////////////////////////////////////////////////////////

Member for

2 años 6 meses
Enviado por meteorologia el Jue, 23/11/2017 - 11:39
25/1

25 DE ENERO 2021

INFORMACION METEOROLOGICA AERONAUTICA (METAR) 18:00 UTC

Aeropuerto AEROPARQUE J. NEWBERY

25 - 18:00  METAR SABE 251800Z 05006KT CAVOK 32/23 Q1005 NOSIG =

Aeropuerto BAHIA BLANCA

25 - 18:00  METAR SAZB 251800Z 16013KT CAVOK 28/10 Q1006 =

Aeropuerto BARILOCHE

25 - 18:00  METAR SAZS 251800Z 30030KT 9999 SCT050 17/04 Q1011 =

Aeropuerto CATAMARCA

25 - 18:00  METAR SANC 251800Z 18005KT 9999 NSC 39/18 Q1001 =

Aeropuerto CHAPELCO

25 - 18:00  METAR SAZY 251800Z 25022G35KT 9999 FEW045 20/02 Q1011 =

Aeropuerto COMODORO RIVADAVIA

25 - 18:00  METAR SAVC 251800Z 27024G41KT 9999 SCT040 22/M03 Q1002 =

Aeropuerto CORDOBA

25 - 18:00  METAR SACO 251800Z 25015G31KT 4000 +TSRA SCT040 SCT050CB 25/18 Q1006 TEMPO 23020G30KT 1500 +TSRA BKN030 SCT050CB =

Aeropuerto CORRIENTES

25 - 18:00  METAR SARC 251800Z 05005KT 9999 BKN030 FEW050CB 33/22 Q1004 RMK CB OBS TO W =

Aeropuerto EL CALAFATE

25 - 18:00  METAR SAWC 251800Z 27030KT 9999 FEW025 SCT035 11/00 Q0995 =

Aeropuerto EL PALOMAR

25 - 18:00  METAR SADP 251800Z 04006KT 320V100 9999 SCT045 35/18 Q1005 =

Aeropuerto ESQUEL

25 - 18:00  METAR SAVE 251800Z 29028G45KT 230V360 9999 FEW035 16/01 Q1006 =

Aeropuerto EZEIZA

25 - 18:00  METAR SAEZ 251800Z 04010KT CAVOK 36/17 Q1004 NOSIG =

Aeropuerto FORMOSA

25 - 18:00  METAR SARF 251800Z 27005KT 9000 -TSRA SCT025 SCT040 FEW050CB 28/25 Q1005 =

Aeropuerto IGUAZU/CATARATAS

25 - 18:00  METAR SARI 251800Z 00000KT 9999 BKN012 OVC040 24/23 Q1010 =

Aeropuerto JUJUY

25 - 18:00  METAR SASJ 251800Z 09005KT 9999 FEW030TCU FEW040CB SCT200 33/17 Q1006 =

Aeropuerto LA RIOJA

25 - 18:00  METAR SANL 251800Z 36008KT 9999 VCTS FEW050 FEW056CB FEW060 35/19 Q1002 RECB OBS TO W - NW =

Aeropuerto MALARGUE

25 - 18:00  METAR SAMM 251800Z 36005KT 9999 FEW030TCU 31/07 Q1011 =

Aeropuerto MAR DEL PLATA

25 - 18:00  METAR SAZM 251800Z 34010KT 9999 SCT030 34/19 Q1004 =

Aeropuerto MENDOZA

25 - 18:00  METAR SAME 251800Z 05005KT 9999 FEW040CB SCT045 35/13 Q1005 =

Aeropuerto MORON

25 - 18:00  METAR SADM 251800Z 36006KT CAVOK 36/19 Q1004 =

Aeropuerto NEUQUEN

25 - 18:00  METAR SAZN 251800Z 27005KT CAVOK 31/01 Q1006 =

Aeropuerto PARANA

25 - 18:00  METAR SAAP 251800Z 36007KT 9999 VCTS SCT035 FEW045CB 34/25 Q1004 =

Aeropuerto POSADAS

25 - 18:00  METAR SARP 251800Z 32010KT 9999 FEW020 BKN100 27/22 Q1008 =

Aeropuerto PUERTO MADRYN

25 - 18:00  METAR SAVY 251800Z 23014KT 9999 FEW035 28/M02 Q1003 =

Aeropuerto RECONQUISTA

25 - 18:00  METAR SATR 251800Z 09009KT 9999 BKN025 35/24 Q1003 =

Aeropuerto RESISTENCIA

25 - 18:00  METAR SARE 251800Z 05006KT 9999 TS VCSH SCT050TCU FEW056CB 35/23 Q1003 =

Aeropuerto RIO CUARTO

25 - 18:00  METAR SAOC 251800Z 27010KT 7000 -TSRA FEW040 FEW045CB BKN050 26/21 Q1004 =

Aeropuerto RIO GALLEGOS

25 - 18:00  METAR SAWG 251800Z 27026G38KT 9999 FEW030 FEW040TCU 17/M08 Q0990 =

Aeropuerto RIO GRANDE

25 - 18:00  METAR SAWE 251800Z 27022G32KT 9999 SCT025 14/00 Q0986 =

Aeropuerto ROSARIO

25 - 18:00  METAR SAAR 251800Z 36007KT 9999 VCTS FEW045 FEW050CB SCT100 BKN200 31/23 Q1004 =

Aeropuerto SALTA

25 - 18:00  METAR SASA 251800Z 32004KT 9999 FEW017TCU FEW030CB BKN100 28/16 Q1009 =

Aeropuerto SAN FERNANDO

25 - 18:00  METAR SADF 251800Z 05012KT 9999 SCT035 35/20 Q1005 =

Aeropuerto SAN JUAN

25 - 18:00  METAR SANU 251800Z 18015KT 9999 SCT045TCU BKN100 40/15 Q1003 =

Aeropuerto SAN LUIS

25 - 18:00  METAR SAOU 251800Z 11012KT 9999 SCT040 FEW045CB 35/17 Q1005 =

Aeropuerto SAN RAFAEL

25 - 18:00  METAR SAMR 251800Z 09010KT 9999 34/06 Q1007 =

Aeropuerto SANTA ROSA

25 - 18:00  METAR SAZR 251800Z 05006KT CAVOK 36/19 Q1005 =

Aeropuerto SANTIAGO DEL ESTERO

25 - 18:00  METAR SANE 251800Z 05008KT 9999 FEW035 38/21 Q1001 =

Aeropuerto SAUCE VIEJO

25 - 18:00  METAR SAAV 251800Z 03007KT 9999 FEW048TCU FEW050 35/22 Q1003 =

Aeropuerto TANDIL

25 - 18:00  METAR SAZT 251800Z 32007KT 9999 SCT045TCU 34/17 Q1004 =

Aeropuerto TERMAS DE RIO HONDO

25 - 12:00  METAR SANR 251200Z 36008KT CAVOK 24/21 Q1005 =

Aeropuerto TRELEW

25 - 18:00  METAR SAVT 251800Z 27010KT 9999 SCT040 28/01 Q1003 =

Aeropuerto TUCUMAN

25 - 18:00  METAR SANT 251800Z 14004KT 9999 FEW050CB BKN200 32/22 Q1004 =

Aeropuerto USHUAIA

25 - 18:00  METAR SAWH 251800Z 25007KT 9999 VCSH SCT045 12/M01 Q0983 =

Aeropuerto VIEDMA

25 - 18:00  METAR SAVV 251800Z 16011KT 100V210 CAVOK 26/07 Q1005 =

Aeropuerto VILLA REYNOLDS

25 - 18:00  METAR SAOR 251800Z 14010KT 9999 TS SCT035 FEW045CB 36/17 Q1004 =

 PRONOSTICO DE AERODROMO (TAF) 17:00 UTC

Estación AEROPARQUE J. NEWBERY

25 - 17:00  TAF SABE 251700Z 2518/2618 06010KT 9999 SCT040 TX33/2619Z TN25/2608Z BECMG 2521/2524 08015KT CAVOK BECMG 2605/2608 36010KT 9999 SCT035 BKN080 PROB30 TEMPO 2609/2612 8000 -SHRA SCT035 FEW050TCU BKN080 BECMG 2612/2614 9999 SCT040 FEW050TCU TEMPO 2615/2618 05010KT 6000 TSRA BKN035 FEW040CB OVC080 =

Estación BAHIA BLANCA

25 - 17:00  TAF SAZB 251700Z 2518/2618 20020KT 9999 SCT040 FEW050TCU TX30/2618Z TN19/2609Z TEMPO 2519/2521 16015G35KT 8000 -RA SCT030 SCT050TCU BECMG 2601/2604 09012KT CAVOK BECMG 2609/2612 27010KT BECMG 2615/2618 18012KT =

Estación BARILOCHE

25 - 17:00  TAF SAZS 251700Z 2518/2618 30030KT 9999 SCT045 TX21/2520Z TN05/2609Z BECMG 2522/2601 27015KT CAVOK BECMG 2605/2608 27005KT BECMG 2612/2615 30020KT 9999 FEW045 =

Estación CATAMARCA

25 - 17:00  TAF SANC 251700Z 2518/2618 34005KT 9999 SCT035 FEW040TCU TX36/2619Z TN22/2609Z TEMPO 2519/2600 23015KT 8000 TS SHRA BKN040 FEW045CB =

Estación CHAPELCO

25 - 17:00  TAF SAZY 251700Z 2518/2618 25020G35KT 9999 SCT030 FEW050TCU TX23/2519Z TN06/2609Z BECMG 2521/2600 27010KT 9999 SCT020 SCT040 BECMG 2612/2615 25015G25KT =

Estación COMODORO RIVADAVIA

25 - 17:00  TAF SAVC 251700Z 2518/2618 27025G40KT 9999 SCT030 TX24/2522Z TN12/2610Z BECMG 2523/2601 27015G30KT CAVOK =

Estación CORDOBA

25 - 17:50  SACO 251750Z 2518/2618 27020G30KT 3000 TSRA BKN030 SCT050CB TX34/2619Z TN18/2609Z TEMPO 2518/2520 23025G35KT 0500 +TSRAGR SCT008 BKN020 SCT040CB BECMG 2522/2600 05010KT 9999 NSW SCT020 BKN030 =

Estación CORRIENTES

25 - 17:00  TAF SARC 251700Z 2518/2618 05005KT 9999 BKN025 TX35/2519Z TN23/2609Z PROB40 2519/2524 3000 TSRA BECMG 2600/2602 CAVOK PROB40 2615/2618 5000 TSRA SCT020 FEW050CB =

Estación EL CALAFATE

25 - 17:00  TAF SAWC 251700Z 2518/2618 29020G30KT 9999 SCT030 BKN040 TX14/2519Z TN04/2611Z BECMG 2519/2521 27015KT =

Estación EL PALOMAR

25 - 17:00  TAF SADP 251700Z 2518/2618 02010KT 9999 FEW050 TX36/2518Z TN24/2609Z BECMG 2606/2609 VRB05KT 9999 SCT040 TEMPO 2615/2618 34005KT 8000 SHRA SCT040 FEW050TCU =

Estación ESQUEL

25 - 17:00  TAF SAVE 251700Z 2518/2618 29015G35KT 9999 SCT035 TX20/2520Z TN02/2610Z BECMG 2520/2522 27010KT CAVOK BECMG 2609/2611 23010KT 9999 BKN010 =

Estación EZEIZA

25 - 17:00  TAF SAEZ 251700Z 2518/2618 02010KT 9999 SCT040 TX36/2518Z TN24/2609Z BECMG 2606/2609 VRB05KT 9999 SCT040 TEMPO 2615/2618 34005KT 8000 SHRA SCT040 FEW050TCU =

Estación FORMOSA

25 - 17:00  TAF SARF 251700Z 2518/2618 36005KT 6000 TSRA BKN025 FEW050CB TX33/2519Z TN24/2609Z PROB40 2519/2524 3000 TSRA BECMG 2600/2602 CAVOK PROB40 2615/2618 5000 TSRA SCT020 FEW050CB =

Estación IGUAZU/CATARATAS

25 - 17:00  TAF SARI 251700Z 2518/2618 05005KT 8000 -DZ BKN015 OVC040 TX28/2518Z TN22/2609Z PROB40 2519/2524 5000 TSRA BKN020 FEW050CB BECMG 2600/2602 CAVOK PROB40 2615/2618 8000 SHRA SCT020 FEW050TCU =

Estación JUJUY

25 - 17:00  TAF SASJ 251700Z 2518/2618 09005KT 9999 FEW030TCU FEW040CB TX30/2619Z TN18/2609Z TEMPO 2600/2603 5000 TS SHRA BKN025 FEW040CB BECMG 2602/2604 VRB03KT 9999 NSW SCT020 BKN030 =

Estación LA RIOJA

25 - 17:00  TAF SANL 251700Z 2518/2618 20005KT 9999 TS SCT030 FEW035CB TX36/2619Z TN24/2609Z TEMPO 2519/2600 23015G25KT 8000 TS SHRA BKN040 FEW045CB =

Estación MAR DEL PLATA

25 - 17:00  TAF SAZM 251700Z 2518/2618 36015KT 9999 SCT030 FEW050TCU TX34/2518Z TN19/2608Z BECMG 2601/2603 VRB03KT 6000 BKN015 BECMG 2610/2612 09010KT 4000 RA BKN010 OVC030 BECMG 2615/2617 05015KT 9999 BKN025 =

Estación MENDOZA

25 - 17:00  TAF SAME 251700Z 2518/2618 14010KT 9999 FEW040 FEW050TCU TX38/2521Z TN22/2610Z BECMG 2520/2522 09005KT 9999 VCTS SCT040 FEW050CB BECMG 2601/2603 23010KT 6000 TSRA BKN030 FEW040CB =

Estación NEUQUEN

25 - 17:00  TAF SAZN 251700Z 2518/2618 24010KT CAVOK TX33/2520Z TN18/2609Z BECMG 2519/2522 24015G25KT 9999 FEW040 BECMG 2604/2607 27010KT CAVOK BECMG 2613/2616 25015KT =

Estación PARANA

25 - 17:00  TAF SAAP 251700Z 2518/2518 05005KT 9999 FEW050TCU TX33/2518Z TN24/2609Z TEMPO 2519/2521 09006KT 7000 -SHRA BKN030 FEW050CB BECMG 2521/2600 9999 SCT040 PROB40 2609/2609 VRB05KT 5000 TSRA SCT030 FEW050CB =

Estación POSADAS

25 - 17:00  TAF SARP 251700Z 2518/2618 32005KT 9999 SCT020 FEW050TCU TX30/2519Z TN24/2609Z PROB40 2519/2524 5000 TSRA BECMG 2600/2602 CAVOK PROB40 2615/2618 8000 SHRA SCT020 FEW050TCU =

Estación RESISTENCIA

25 - 17:00  TAF SARE 251700Z 2518/2618 36005KT 6000 SHRA SCT020 FEW050CB TX36/2519Z TN23/2609Z PROB40 2519/2524 3000 TSRA BECMG 2600/2602 CAVOK PROB40 2615/2618 5000 TSRA SCT020 FEW050CB =

Estación RIO CUARTO

25 - 17:00  TAF SAOC 251700Z 2518/2618 36010KT 9999 FEW035 FEW040CB TX33/2619Z TN19/2609Z TEMPO 2519/2520 8000 TSRA BKN020 FEW035CB BECMG 2522/2600 VRB03KT 9999 NSW SCT020 BKN030 =

Estación RIO GALLEGOS

25 - 17:00  TAF SAWG 251700Z 2518/2618 25025G35KT 9999 FEW030 BKN070 TX16/2517Z TN05/2611Z BECMG 2519/2521 27030G45KT 9999 -TSRA SCT025 SCT040CB OVC050 BECMG 2601/2603 27025G48KT 9999 NSW SCT030 BECMG 2614/2616 25025G35KT 9999 -RA BKN020 OVC050 =

Estación RIO GRANDE

25 - 17:00  TAF SAWE 251700Z 2518/2618 27025G35KT 9999 SCT020 TX12/2519Z TN04/2610Z BECMG 2519/2521 27020G30KT 9999 TSRA SCT020 SCT040CB OVC045 BECMG 2523/2601 29030G48KT 9999 NSW SCT030 OVC070 =

Estación ROSARIO

25 - 17:00  TAF SAAR 251700Z 2518/2618 02010KT 9999 SCT040 FEW050CB TX37/2619Z TN25/2608Z PROB40 TEMPO 2518/2523 7000 -TSRA SCT035 FEW050CB BKN070 BECMG 2600/2602 06010KT CAVOK BECMG 2604/2607 6000 TSRA BKN035 FEW040CB BECMG 2610/2612 04015KT 8000 -SHRA SCT030 FEW045CB BKN060 BECMG 2615/2618 VRB15KT 5000 -TSRA SCT020 OVC040 FEW040CB =

Estación SALTA

25 - 17:00  TAF SASA 251700Z 2518/2618 23005KT 9999 FEW030TCU TX28/2619Z TN15/2609Z TEMPO 2520/2522 8000 TS SHRA BKN025 FEW040CB BECMG 2600/2603 VRB03KT 9999 NSW SCT020 BKN030 =

Estación SAN FERNANDO

25 - 17:00  TAF SADF 251700Z 2518/2618 02010KT 9999 SCT035 TX35/2518Z TN24/2609Z BECMG 2520/2522 09015KT CAVOK BECMG 2604/2606 36005KT BECMG 2615/2617 02005KT 9999 SCT040 FEW045TCU TEMPO 2616/2618 8000 SHRA =

Estación SAN JUAN

25 - 17:00  TAF SANU 251700Z 2518/2618 16010KT 9999 SCT040 FEW050CB TX42/2521Z TN18/2610Z BECMG 2523/2601 29010KT 8000 TSRA BKN040 FEW050CB =

Estación SAN LUIS

25 - 17:00  TAF SAOU 251700Z 2518/2618 16010KT 9999 SCT030 FEW040CB TX35/2519Z TN19/2609Z PROB40 TEMPO 2523/2603 11010KT 6000 TSRA BKN030 FEW040CB =

Estación SAN RAFAEL

25 - 17:00  TAF SAMR 251700Z 2518/2618 14005KT 9999 FEW040TCU TX37/2520Z TN18/2610Z BECMG 2520/2522 14005KT 9999 SCT040 FEW050CB PROB40 TEMPO 2601/2605 14010KT 6000 TSRA SCT030 FEW040CB =

Estación SANTA ROSA

25 - 17:00  TAF SAZR 251700Z 2518/2618 32006KT CAVOK TX36/2518Z TN21/2609Z TEMPO 2519/2520 18015KT 7000 -TSRA SCT030 FEW050CB BECMG 2521/2600 14010KT CAVOK BECMG 2603/2606 09003KT BECMG 2609/2612 20015KT =

Estación SANTIAGO DEL ESTERO

25 - 17:00  TAF SANE 251700Z 2518/2618 05005KT 9999 SCT045 TX35/2619Z TN23/2609Z BECMG 2522/2600 05010KT 9999 SCT035 FEW040TCU TEMPO 2606/2609 23015G25KT 8000 TS SHRA BKN030 FEW040CB =

Estación SAUCE VIEJO

25 - 17:00  TAF SAAV 251700Z 2518/2518 05005KT CAVOK TX34/2518Z TN24/2609Z TEMPO 2519/2521 09006KT 7000 -SHRA BKN030 FEW050CB BECMG 2521/2600 9999 SCT040 PROB40 2609/2609 VRB05KT 5000 TSRA SCT030 FEW050CB =

Estación TERMAS DE RIO HONDO

25 - 17:00  TAF SANR 251700Z 2518/2618 NIL =

Estación TRELEW

25 - 17:00  TAF SAVT 251700Z 2518/2618 25015KT 9999 FEW035 TX30/2514Z TN16/2610Z BECMG 2523/2601 36010KT BECMG 2606/2608 18015KT =

Estación TUCUMAN

25 - 17:00  TAF SANT 251700Z 2518/2618 09005KT CAVOK TX33/2519Z TN23/2609Z TEMPO 2521/2600 8000 TS SHRA BKN025 FEW040CB BECMG 2602/2604 VRB03KT 9999 NSW SCT020 BKN030 =

Estación USHUAIA

25 - 17:00  TAF SAWH 251700Z 2518/2618 14005KT 9999 SCT030 BKN090 TX14/2520Z TN00/2610Z BECMG 2519/2521 32015KT 9000 TSRA SCT025 BKN035CB OVC050 BECMG 2601/2603 32010KT 2000 BRDZ BKN010 OVC025 BECMG 2614/2616 27010KT 8000 SHRA SCT030 OVC050 =

Estación VIEDMA

25 - 17:00  TAF SAVV 251700Z 2518/2618 18015KT CAVOK TX28/2515Z TN13/2610Z BECMG 2521/2523 07010KT BECMG 2615/2617 18015KT =